Map

Track Data

SID SEASON NUMBER BASIN SUBBASIN NAME ISO_TIME NATURE LAT LON WMO_WIND WMO_PRES WMO_AGENCY TRACK_TYPE DIST2LAND LANDFALL IFLAG USA_AGENCY USA_ATCF_ID USA_LAT USA_LON USA_RECORD USA_STATUS USA_WIND USA_PRES USA_SSHS USA_R34_NE USA_R34_SE USA_R34_SW USA_R34_NW USA_R50_NE USA_R50_SE USA_R50_SW USA_R50_NW USA_R64_NE USA_R64_SE USA_R64_SW USA_R64_NW USA_POCI USA_ROCI USA_RMW USA_EYE TOKYO_LAT TOKYO_LON TOKYO_GRADE TOKYO_WIND TOKYO_PRES TOKYO_R50_DIR TOKYO_R50_LONG TOKYO_R50_SHORT TOKYO_R30_DIR TOKYO_R30_LONG TOKYO_R30_SHORT TOKYO_LAND CMA_LAT CMA_LON CMA_CAT CMA_WIND CMA_PRES HKO_LAT HKO_LON HKO_CAT HKO_WIND HKO_PRES NEWDELHI_LAT NEWDELHI_LON NEWDELHI_GRADE NEWDELHI_WIND NEWDELHI_PRES NEWDELHI_CI NEWDELHI_DP NEWDELHI_POCI REUNION_LAT REUNION_LON REUNION_TYPE REUNION_WIND REUNION_PRES REUNION_TNUM REUNION_CI REUNION_RMW REUNION_R34_NE REUNION_R34_SE REUNION_R34_SW REUNION_R34_NW REUNION_R50_NE REUNION_R50_SE REUNION_R50_SW REUNION_R50_NW REUNION_R64_NE REUNION_R64_SE REUNION_R64_SW REUNION_R64_NW BOM_LAT BOM_LON BOM_TYPE BOM_WIND BOM_PRES BOM_TNUM BOM_CI BOM_RMW BOM_R34_NE BOM_R34_SE BOM_R34_SW BOM_R34_NW BOM_R50_NE BOM_R50_SE BOM_R50_SW BOM_R50_NW BOM_R64_NE BOM_R64_SE BOM_R64_SW BOM_R64_NW BOM_ROCI BOM_POCI BOM_EYE BOM_POS_METHOD BOM_PRES_METHOD NADI_LAT NADI_LON NADI_CAT NADI_WIND NADI_PRES WELLINGTON_LAT WELLINGTON_LON WELLINGTON_WIND WELLINGTON_PRES DS824_LAT DS824_LON DS824_STAGE DS824_WIND DS824_PRES TD9636_LAT TD9636_LON TD9636_STAGE TD9636_WIND TD9636_PRES TD9635_LAT TD9635_LON TD9635_WIND TD9635_PRES TD9635_ROCI NEUMANN_LAT NEUMANN_LON NEUMANN_CLASS NEUMANN_WIND NEUMANN_PRES MLC_LAT MLC_LON MLC_CLASS MLC_WIND MLC_PRES USA_GUST BOM_GUST BOM_GUST_PER REUNION_GUST REUNION_GUST_PER USA_SEAHGT USA_SEARAD_NE USA_SEARAD_SE USA_SEARAD_SW USA_SEARAD_NW STORM_SPEED STORM_DIR
1979262N15149 1979 91 WP MM OWEN 1979-09-19 00:00:00 NR 14.5000 149.000 main 1868 1819 __________O___ -1 14.5000 149.000 1 12 219
1979262N15149 1979 91 WP MM OWEN 1979-09-19 03:00:00 NR 14.0258 148.607 main 1808 1761 __________P___ -1 14.0258 148.607 1 12 220
1979262N15149 1979 91 WP MM OWEN 1979-09-19 06:00:00 NR 13.5909 148.223 main 1761 1726 __________P___ -1 13.5909 148.223 1 11 223
1979262N15149 1979 91 WP MM OWEN 1979-09-19 09:00:00 NR 13.2356 147.852 main 1715 1691 __________P___ -1 13.2356 147.852 1 9 230
1979262N15149 1979 91 WP MM OWEN 1979-09-19 12:00:00 NR 13.0000 147.500 main 1691 1680 __________O___ -1 13.0000 147.500 1 7 244
1979262N15149 1979 91 WP MM OWEN 1979-09-19 15:00:00 NR 12.9062 147.167 main 1680 1680 __________P___ -1 12.9062 147.167 1 7 262
1979262N15149 1979 91 WP MM OWEN 1979-09-19 18:00:00 NR 12.9040 146.827 main 1680 1680 __________P___ -1 12.9040 146.827 1 7 272
1979262N15149 1979 91 WP MM OWEN 1979-09-19 21:00:00 NR 12.9248 146.448 main 1680 1680 __________P___ -1 12.9248 146.448 1 8 270
1979262N15149 1979 91 WP MM OWEN 1979-09-20 00:00:00 NR 12.9000 146.000 main 1681 1662 __________O___ -1 12.9000 146.000 1 11 258
1979262N15149 1979 91 WP MM OWEN 1979-09-20 03:00:00 NR 12.6970 145.385 main 1663 1645 __________P___ -1 12.6970 145.385 1 13 250
1979262N15149 1979 91 WP MM OWEN 1979-09-20 06:00:00 NR 12.4441 144.711 main 1638 1624 __________P___ -1 12.4441 144.711 1 14 249
1979262N15149 1979 91 WP MM OWEN 1979-09-20 09:00:00 NR 12.1939 144.057 main 1625 1614 __________P___ -1 12.1939 144.057 1 13 249
1979262N15149 1979 91 WP MM OWEN 1979-09-20 12:00:00 NR 12.0000 143.500 main 1616 1610 __________O___ -1 12.0000 143.500 1 9 253
1979262N15149 1979 91 WP MM OWEN 1979-09-20 15:00:00 NR 11.9260 143.183 main 1610 1603 __________P___ -1 11.9260 143.183 1 5 261
1979262N15149 1979 91 WP MM OWEN 1979-09-20 18:00:00 NR 11.9160 142.963 main 1603 1595 __________P___ -1 11.9160 142.963 1 4 273
1979262N15149 1979 91 WP MM OWEN 1979-09-20 21:00:00 NR 11.9480 142.761 main 1595 1595 __________P___ -1 11.9480 142.761 1 5 280
1979262N15149 1979 91 WP MM OWEN 1979-09-21 00:00:00 NR 12.0000 142.500 main 1596 1583 __________O___ -1 12.0000 142.500 1 7 277
1979262N15149 1979 91 WP MM OWEN 1979-09-21 03:00:00 NR 12.0279 142.056 main 1583 1574 __________P___ -1 12.0279 142.056 1 9 274
1979262N15149 1979 91 WP MM OWEN 1979-09-21 06:00:00 NR 12.0706 141.545 main 1572 1551 __________P___ -1 12.0706 141.545 1 10 276
1979262N15149 1979 91 WP MM OWEN 1979-09-21 09:00:00 NR 12.1279 141.012 main 1551 1535 __________P___ -1 12.1279 141.012 1 11 275
1979262N15149 1979 91 WP MM OWEN 1979-09-21 12:00:00 TS 12.1600 140.400 1006 tokyo main 1539 1521 _O________O___ -1 12.0000 140.000 2 1006 0 0 0 12.2000 140.500 1 11 273
1979262N15149 1979 91 WP MM OWEN 1979-09-21 15:00:00 TS 12.1888 139.926 main 1521 1502 _P________P___ -1 11.9227 139.667 2 1005 0 0 12.3219 140.055 1 9 277
1979262N15149 1979 91 WP MM OWEN 1979-09-21 18:00:00 TS 12.2584 139.537 1004 tokyo main 1494 1475 _O________P___ -1 12.0000 139.400 2 1004 0 0 0 12.4522 139.641 1 7 290
1979262N15149 1979 91 WP MM OWEN 1979-09-21 21:00:00 TS 12.4319 139.239 main 1465 1448 _P________P___ -1 12.3073 139.223 2 1002 0 0 12.5564 139.255 1 7 300
1979262N15149 1979 91 WP MM OWEN 1979-09-22 00:00:00 TS 12.6000 138.940 1000 tokyo main 1437 1405 OO_______OO___ jtwc_wp WP191979 12.6000 138.900 20 -1 12.6000 139.000 2 1000 0 0 0 12.6000 138.900 TC 20 12.6000 138.900 1 20 7 282
1979262N15149 1979 91 WP MM OWEN 1979-09-22 03:00:00 TS 12.5664 138.574 main 1405 1361 PP_______PP___ WP191979 12.5901 138.603 22 -1 12.6102 138.565 2 1000 0 0 12.5901 138.603 TC 22 12.4989 138.554 1 21 7 258
1979262N15149 1979 91 WP MM OWEN 1979-09-22 06:00:00 TS 12.4513 138.224 1000 tokyo main 1361 1325 OO_O_____OP___ jtwc_wp WP191979 12.5000 138.300 25 -1 12.5000 138.100 2 1000 0 0 0 12.4000 138.200 TD 25 1002 12.5000 138.300 TC 25 12.3423 138.239 1 22 7 246
1979262N15149 1979 91 WP MM OWEN 1979-09-22 09:00:00 TS 12.2938 137.933 main 1325 1301 PP_P_____PP___ WP191979 12.2925 137.992 25 -1 12.3999 137.755 2 1001 0 0 12.2950 138.012 TD 25 1002 12.2925 137.992 TC 25 12.1896 137.954 1 23 6 241
1979262N15149 1979 91 WP MM OWEN 1979-09-22 12:00:00 TS 12.1579 137.674 1002 tokyo main 1301 1277 OO_O_____OO___ jtwc_wp WP191979 12.1000 137.700 25 -1 12.3000 137.500 2 1002 0 0 0 12.2000 137.800 TD 25 1002 12.1000 137.700 TC 25 12.1000 137.700 1 25 5 249
1979262N15149 1979 91 WP MM OWEN 1979-09-22 15:00:00 TS 12.1051 137.440 main 1267 1256 PP_P_____PP___ WP191979 12.0325 137.428 25 -1 12.2124 137.327 2 1002 0 0 12.1275 137.550 TD 27 1001 12.0325 137.428 TC 25 12.1205 137.467 1 25 4 268
1979262N15149 1979 91 WP MM OWEN 1979-09-22 18:00:00 TS 12.1457 137.255 1002 tokyo main 1256 1238 OOOO_____OP___ jtwc_wp WP191979 12.1000 137.200 25 -1 12.2000 137.200 2 1002 0 0 0 12.2000 137.700 1 29 1000 12.1000 137.300 TD 30 1000 12.1000 137.200 TC 25 12.2148 137.263 1 25 4 296
1979262N15149 1979 91 WP MM OWEN 1979-09-22 21:00:00 TS 12.2801 137.075 main 1239 1219 PPPP_____PP___ WP191979 12.2975 137.035 25 -1 12.2900 137.035 2 1001 0 0 12.3327 137.310 1 29 1000 12.1125 137.078 TD 30 999 12.2975 137.035 TC 25 12.3768 137.077 1 25 5 317
1979262N15149 1979 91 WP MM OWEN 1979-09-23 00:00:00 TS 12.5000 136.913 1000 tokyo main 1220 1211 OOOO_____OO___ jtwc_wp WP191979 12.6000 136.900 25 -1 12.5000 136.900 2 1000 0 0 0 12.5000 137.000 1 29 1000 12.2000 136.900 TD 30 998 12.6000 136.900 TC 25 12.6000 136.900 1 25 6 331
1979262N15149 1979 91 WP MM OWEN 1979-09-23 03:00:00 TS 12.7747 136.788 main 1214 1205 PPPP_____PP___ WP191979 12.9425 136.757 27 -1 12.8274 136.880 2 997 0 0 12.7274 136.820 1 29 1000 12.3775 136.785 TD 35 996 12.9425 136.757 TC 27 12.8309 136.726 1 27 6 337
1979262N15149 1979 91 WP MM OWEN 1979-09-23 06:00:00 TS 13.0871 136.660 45 994 tokyo main 1209 1191 OOOO_____OP___ jtwc_wp WP191979 13.3000 136.600 30 -1 13.2000 136.800 3 45 994 0 3 150 110 0 13.0000 136.700 1 29 1000 12.6000 136.700 TS 40 994 13.3000 136.600 TC 30 13.1224 136.557 1 30 6 332
1979262N15149 1979 91 WP MM OWEN 1979-09-23 09:00:00 TS 13.3459 136.480 main 1191 1177 PPPP_____PP___ WP191979 13.5700 136.407 32 -1 13.4927 136.465 3 45 994 0 3 150 110 13.2549 136.587 1 33 999 12.7100 136.630 TS 40 994 13.5700 136.407 TC 32 13.4778 136.385 1 32 7 327
1979262N15149 1979 91 WP MM OWEN 1979-09-23 12:00:00 TS 13.6833 136.267 45 994 tokyo main 1180 1164 OOOO_____OO___ jtwc_wp WP191979 13.9000 136.200 35 0 13.8000 136.100 3 45 994 0 3 150 110 0 13.6000 136.400 2 38 998 13.0000 136.500 TS 40 994 13.9000 136.200 TC 35 13.9000 136.200 2 35 9 333
1979262N15149 1979 91 WP MM OWEN 1979-09-23 15:00:00 TS 14.1744 136.040 main 1159 1146 PPPP_____PP___ WP191979 14.4125 136.007 40 0 14.1099 135.927 3 45 994 0 3 150 110 14.0602 136.015 2 38 996 13.6950 136.245 TS 40 993 14.4125 136.007 TC 40 14.3565 136.037 2 37 12 338
1979262N15149 1979 91 WP MM OWEN 1979-09-23 18:00:00 TS 14.7966 135.792 45 994 tokyo main 1151 1143 OOOO_____OP___ jtwc_wp WP191979 15.0000 135.800 45 0 14.6000 135.800 3 45 994 0 3 150 110 0 14.7000 135.600 2 38 994 14.6000 135.900 TS 40 992 15.0000 135.800 TC 45 14.8794 135.853 2 40 14 341
1979262N15149 1979 91 WP MM OWEN 1979-09-23 21:00:00 TS 15.5107 135.554 main 1151 1141 PPPP_____PP___ WP191979 15.5123 135.594 45 0 15.4773 135.652 3 45 992 0 3 150 130 15.5847 135.364 2 43 992 15.5151 135.500 TS 42 991 15.5123 135.594 TC 45 15.4626 135.617 2 42 16 340
1979262N15149 1979 91 WP MM OWEN 1979-09-24 00:00:00 TS 16.2667 135.250 45 990 tokyo main 1151 1135 OOOO_____OO___ jtwc_wp WP191979 16.1000 135.300 45 0 16.4000 135.400 3 45 990 0 9 150 150 0 16.5000 135.100 3 48 990 16.4000 135.100 TS 45 990 16.1000 135.300 TC 45 16.1000 135.300 2 45 16 335
1979262N15149 1979 91 WP MM OWEN 1979-09-24 03:00:00 TS 16.9798 134.834 main 1135 1125 PPPP_____PP___ WP191979 16.8851 134.845 50 0 16.9800 134.952 3 50 987 0 9 150 150 17.1875 134.645 3 48 990 17.1295 134.836 TS 47 987 16.8851 134.845 TC 50 16.8113 134.879 2 48 17 328
1979262N15149 1979 91 WP MM OWEN 1979-09-24 06:00:00 TS 17.6775 134.329 55 985 tokyo main 1128 1118 OOOO_____OP___ jtwc_wp WP191979 17.7000 134.300 55 0 17.5000 134.400 4 55 985 9 50 50 9 150 150 0 17.8000 134.100 3 48 990 17.8000 134.500 STS 50 985 17.7000 134.300 TC 55 17.5651 134.371 2 52 17 324
1979262N15149 1979 91 WP MM OWEN 1979-09-24 09:00:00 TS 18.3776 133.779 main 1123 1098 PPPP_____PP___ WP191979 18.3874 133.757 57 0 18.1773 133.872 4 57 982 9 100 50 9 200 135 18.4721 133.587 3 53 985 18.5303 133.896 STS 50 982 18.3874 133.757 TC 57 18.3112 133.803 2 56 17 321
1979262N15149 1979 91 WP MM OWEN 1979-09-24 12:00:00 TS 19.0333 133.183 60 980 tokyo main 1098 1081 OOOO_____OO___ jtwc_wp WP191979 19.0000 133.200 60 0 18.9000 133.300 4 60 980 2 150 50 2 250 120 0 19.1000 133.000 3 58 980 19.2000 133.200 STS 50 980 19.0000 133.200 TC 60 19.0000 133.200 2 60 17 317
1979262N15149 1979 91 WP MM OWEN 1979-09-24 15:00:00 TS 19.6335 132.558 main 1081 1035 PPPP_____PP___ WP191979 19.5796 132.672 60 0 19.6600 132.658 4 65 975 2 150 50 2 250 125 19.6307 132.213 3 63 975 19.7447 132.592 STS 52 975 19.5796 132.672 TC 60 19.6062 132.540 2 62 16 314
1979262N15149 1979 91 WP MM OWEN 1979-09-24 18:00:00 TS 20.1573 131.927 70 970 tokyo main 1027 974 OOOO_____OP___ jtwc_wp WP191979 20.1000 132.100 60 0 20.3000 132.000 5 70 970 2 150 50 2 250 130 0 20.1000 131.500 4 68 970 20.2000 132.000 STS 55 970 20.1000 132.100 TC 60 20.1439 131.861 2 65 15 310
1979262N15149 1979 91 WP MM OWEN 1979-09-24 21:00:00 TS 20.6217 131.302 main 974 932 PPPP_____PP___ WP191979 20.6106 131.348 65 1 20.6749 131.369 5 70 967 2 120 50 2 225 130 20.5868 131.154 4 68 967 20.6376 131.363 STS 57 965 20.6106 131.348 TC 65 20.6095 131.227 2 67 14 307
1979262N15149 1979 91 WP MM OWEN 1979-09-25 00:00:00 TS 20.9833 130.767 70 965 tokyo main 935 903 OOOO_____OO___ jtwc_wp WP191979 21.0000 130.700 70 1 20.9000 130.800 5 70 965 1 90 50 1 200 130 0 21.0000 130.900 4 68 965 21.0000 130.800 STS 60 960 21.0000 130.700 TC 70 21.0000 130.700 4 70 10 305
1979262N15149 1979 91 WP MM OWEN 1979-09-25 03:00:00 TS 21.2150 130.387 main 903 881 PPPP_____PP___ WP191979 21.1644 130.432 72 1 21.0925 130.267 5 70 962 1 90 50 1 200 130 21.2802 130.442 4 68 962 21.2722 130.397 STS 62 955 21.1644 130.432 TC 72 21.3164 130.350 4 72 7 305
1979262N15149 1979 91 WP MM OWEN 1979-09-25 06:00:00 TS 21.4110 130.119 70 960 tokyo main 881 870 OOOO_____OP___ jtwc_wp WP191979 21.3000 130.300 75 1 21.3000 129.900 5 70 960 1 90 50 1 200 130 0 21.5000 130.000 4 68 960 21.5000 130.100 T 65 950 21.3000 130.300 TC 75 21.5658 130.112 4 75 7 316
1979262N15149 1979 91 WP MM OWEN 1979-09-25 09:00:00 TS 21.6891 129.894 main 875 843 PPPP_____PP___ WP191979 21.6276 130.043 77 1 21.6348 129.805 5 75 955 1 95 65 1 225 140 21.7273 129.705 4 72 950 21.7349 129.827 T 67 942 21.6276 130.043 TC 77 21.7824 129.944 4 77 7 328
1979262N15149 1979 91 WP MM OWEN 1979-09-25 12:00:00 TS 22.0000 129.717 80 950 tokyo main 843 813 OOOO_____OO___ jtwc_wp WP191979 22.0000 129.800 80 1 22.0000 129.800 5 80 950 1 100 80 1 250 150 0 22.0000 129.500 4 77 940 22.0000 129.600 T 70 935 22.0000 129.800 TC 80 22.0000 129.800 4 80 7 333
1979262N15149 1979 91 WP MM OWEN 1979-09-25 15:00:00 TS 22.3311 129.538 main 813 792 PPPP_____PP___ WP191979 22.3149 129.642 90 2 22.3150 129.680 5 82 940 1 100 80 1 250 150 22.4075 129.320 4 82 932 22.3500 129.370 T 75 927 22.3149 129.642 TC 90 22.2841 129.574 4 87 7 334
1979262N15149 1979 91 WP MM OWEN 1979-09-25 18:00:00 TS 22.6454 129.378 85 930 tokyo main 792 763 OOOO_____OP___ jtwc_wp WP191979 22.6000 129.500 100 3 22.6000 129.500 5 85 930 1 100 80 1 250 150 0 22.8000 129.200 5 87 925 22.7000 129.200 T 80 920 22.6000 129.500 TC 100 22.5725 129.368 4 95 7 332
1979262N15149 1979 91 WP MM OWEN 1979-09-25 21:00:00 TS 22.9092 129.202 main 763 748 PPPP_____PP___ WP191979 22.8651 129.270 105 3 22.8726 129.220 5 87 925 1 100 90 1 225 175 23.0300 129.127 5 92 921 22.9725 129.120 T 85 920 22.8651 129.270 TC 105 22.8497 129.203 4 102 6 331
1979262N15149 1979 91 WP MM OWEN 1979-09-26 00:00:00 TS 23.1333 129.083 90 920 tokyo main 748 743 OOOO_____OO___ jtwc_wp WP191979 23.1000 129.100 110 3 23.1000 129.000 5 90 920 9 100 100 9 200 200 0 23.2000 129.100 5 97 918 23.2000 129.100 ST 90 920 23.1000 129.100 TC 110 23.1000 129.100 4 110 4 345
1979262N15149 1979 91 WP MM OWEN 1979-09-26 03:00:00 TS 23.3316 129.080 main 743 738 PPPP_____PP___ WP191979 23.3150 129.112 110 3 23.2574 128.997 5 90 920 9 100 100 9 200 200 23.4075 129.092 5 97 919 23.4075 129.085 ST 90 920 23.3150 129.112 TC 110 23.2874 129.081 4 110 4 9
1979262N15149 1979 91 WP MM OWEN 1979-09-26 06:00:00 TS 23.5083 129.137 90 920 tokyo main 738 738 OOOO_____OP___ jtwc_wp WP191979 23.5000 129.200 110 3 23.4000 129.100 5 90 920 9 100 100 9 200 200 0 23.6000 129.100 5 97 920 23.6000 129.100 ST 90 920 23.5000 129.200 TC 110 23.4499 129.125 4 110 4 16
1979262N15149 1979 91 WP MM OWEN 1979-09-26 09:00:00 TS 23.6658 129.188 main 743 740 PPPP_____PP___ WP191979 23.6350 129.250 110 3 23.5775 129.200 5 90 922 9 100 100 9 200 200 23.7350 129.085 5 97 920 23.8000 129.135 ST 90 920 23.6350 129.250 TC 110 23.6124 129.206 4 110 4 18
1979262N15149 1979 91 WP MM OWEN 1979-09-26 12:00:00 TS 23.8500 129.250 90 925 tokyo main 748 744 OOOO_____OO___ jtwc_wp WP191979 23.8000 129.300 110 3 23.8000 129.300 5 90 925 9 100 100 9 200 200 0 23.9000 129.100 5 97 920 24.0000 129.200 ST 90 920 23.8000 129.300 TC 110 23.8000 129.300 4 110 5 15
1979262N15149 1979 91 WP MM OWEN 1979-09-26 15:00:00 TS 24.1181 129.318 main 744 742 PPPP_____PP___ WP191979 24.0850 129.343 107 3 24.0850 129.358 5 90 930 9 100 100 9 250 200 24.2000 129.192 5 97 925 24.2075 129.300 ST 90 925 24.0850 129.343 TC 107 24.0463 129.372 4 107 6 14
1979262N15149 1979 91 WP MM OWEN 1979-09-26 18:00:00 TS 24.4033 129.392 90 935 tokyo main 747 724 OOOO_____OP___ jtwc_wp WP191979 24.4000 129.400 105 3 24.4000 129.400 5 90 935 9 100 100 6 300 200 0 24.5000 129.300 5 97 930 24.4000 129.400 ST 90 930 24.4000 129.400 TC 105 24.3200 129.450 4 105 5 14
1979262N15149 1979 91 WP MM OWEN 1979-09-26 21:00:00 TS 24.6360 129.464 main 724 691 PPPP_____PP___ WP191979 24.6500 129.500 102 3 24.7225 129.450 5 82 940 9 100 100 6 300 200 24.6500 129.350 5 92 937 24.5350 129.458 ST 90 935 24.6500 129.500 TC 102 24.6088 129.528 4 102 5 16
1979262N15149 1979 91 WP MM OWEN 1979-09-27 00:00:00 TS 24.8667 129.533 75 945 tokyo main 691 667 OOOO_____OO___ jtwc_wp WP191979 24.9000 129.600 100 3 25.0000 129.500 5 75 945 9 100 100 6 300 200 0 24.8000 129.400 5 87 945 24.7000 129.500 ST 90 940 24.9000 129.600 TC 100 24.9000 129.600 4 100 5 13
1979262N15149 1979 91 WP MM OWEN 1979-09-27 03:00:00 TS 25.1307 129.597 main 667 632 PPPP_____PP___ WP191979 25.2000 129.658 97 3 25.1500 129.550 5 75 945 9 100 100 6 300 250 25.0775 129.500 5 87 945 24.9775 129.550 ST 85 942 25.2000 129.658 TC 97 25.1791 129.665 4 97 6 11
1979262N15149 1979 91 WP MM OWEN 1979-09-27 06:00:00 TS 25.4096 129.654 75 945 tokyo main 632 599 OOOO_____OP___ jtwc_wp WP191979 25.5000 129.700 95 2 25.3000 129.600 5 75 945 9 100 100 9 300 300 0 25.4000 129.600 5 87 945 25.3000 129.600 T 80 945 25.5000 129.700 TC 95 25.4575 129.722 4 95 6 11
1979262N15149 1979 91 WP MM OWEN 1979-09-27 09:00:00 TS 25.6924 129.709 main 599 566 PPPP_____PP___ WP191979 25.7575 129.757 92 2 25.5925 129.657 5 75 942 9 100 100 9 300 300 25.7075 129.665 5 87 945 25.6075 129.650 T 80 945 25.7575 129.757 TC 92 25.7322 129.768 4 92 6 9
1979262N15149 1979 91 WP MM OWEN 1979-09-27 12:00:00 TS 25.9667 129.750 75 940 tokyo main 565 542 OOOO_____OO___ jtwc_wp WP191979 26.0000 129.800 90 2 25.9000 129.700 5 75 940 9 100 100 9 300 300 0 26.0000 129.700 5 87 945 25.9000 129.700 T 80 945 26.0000 129.800 TC 90 26.0000 129.800 4 90 5 5
1979262N15149 1979 91 WP MM OWEN 1979-09-27 15:00:00 TS 26.2135 129.765 main 542 520 PPPP_____PP___ WP191979 26.2500 129.808 87 2 26.1000 129.715 5 75 942 9 100 100 9 300 300 26.2500 129.693 5 82 947 26.1575 129.750 T 75 945 26.2500 129.808 TC 87 26.2734 129.815 4 88 5 0
1979262N15149 1979 91 WP MM OWEN 1979-09-27 18:00:00 TS 26.4562 129.769 75 945 tokyo main 509 487 OOOO_____OP___ jtwc_wp WP191979 26.5000 129.800 85 2 26.3000 129.700 5 75 945 9 100 100 9 300 300 0 26.5000 129.700 4 77 950 26.4000 129.800 T 70 945 26.5000 129.800 TC 85 26.5375 129.815 4 87 5 2
1979262N15149 1979 91 WP MM OWEN 1979-09-27 21:00:00 TS 26.7321 129.786 main 487 454 PPPP_____PP___ WP191979 26.7650 129.800 85 2 26.6075 129.650 5 75 947 9 100 100 9 300 300 26.8075 129.800 4 72 950 26.6650 129.857 T 70 947 26.7650 129.800 TC 85 26.7828 129.808 4 86 5 0
1979262N15149 1979 91 WP MM OWEN 1979-09-28 00:00:00 TS 26.9833 129.800 75 950 tokyo main 454 433 OOOO_____OO___ jtwc_wp WP191979 27.0000 129.800 85 2 26.9000 129.600 5 75 950 9 100 100 9 300 300 0 27.1000 129.900 4 68 950 26.9000 129.900 T 70 950 27.0000 129.800 TC 85 27.0000 129.800 4 85 4 0
1979262N15149 1979 91 WP MM OWEN 1979-09-28 03:00:00 TS 27.1609 129.799 main 433 422 PPPP_____PP___ WP191979 27.1650 129.800 82 1 27.0650 129.578 5 72 952 9 87 87 9 300 300 27.3225 129.915 4 68 952 27.0650 129.908 T 70 950 27.1650 129.800 TC 82 27.1828 129.796 4 82 3 356
1979262N15149 1979 91 WP MM OWEN 1979-09-28 06:00:00 TS 27.3062 129.799 70 955 tokyo main 422 400 OOOO_____OP___ jtwc_wp WP191979 27.3000 129.800 80 1 27.2000 129.600 5 70 955 9 75 75 9 300 300 0 27.5000 129.900 4 68 954 27.2000 129.900 T 70 950 27.3000 129.800 TC 80 27.3375 129.793 4 80 3 0
1979262N15149 1979 91 WP MM OWEN 1979-09-28 09:00:00 TS 27.4710 129.815 main 400 389 PPPP_____PP___ WP191979 27.4575 129.800 77 1 27.4150 129.700 5 70 955 9 75 75 9 300 300 27.6650 129.900 4 68 954 27.3575 129.900 T 70 950 27.4575 129.800 TC 77 27.4734 129.793 4 77 3 9
1979262N15149 1979 91 WP MM OWEN 1979-09-28 12:00:00 TS 27.6167 129.833 70 955 tokyo main 389 378 OOOO_____OO___ jtwc_wp WP191979 27.6000 129.800 75 1 27.6000 129.800 5 70 955 9 75 75 9 300 300 0 27.8000 129.900 4 68 954 27.5000 129.900 T 70 950 27.6000 129.800 TC 75 27.6000 129.800 4 75 2 0
1979262N15149 1979 91 WP MM OWEN 1979-09-28 15:00:00 TS 27.7153 129.834 main 378 367 PPPP_____PP___ WP191979 27.7000 129.793 75 1 27.6575 129.815 5 70 955 9 75 75 9 300 300 27.9225 129.900 4 68 953 27.6000 129.900 T 70 950 27.7000 129.793 TC 75 27.7118 129.806 4 75 2 0
1979262N15149 1979 91 WP MM OWEN 1979-09-28 18:00:00 TS 27.8033 129.837 70 955 tokyo main 367 354 OOOO_____OP___ jtwc_wp WP191979 27.8000 129.800 75 1 27.7000 129.800 5 70 955 9 75 75 9 300 300 0 28.0000 129.900 4 68 953 27.7000 129.900 T 70 950 27.8000 129.800 TC 75 27.8200 129.820 4 75 2 0
1979262N15149 1979 91 WP MM OWEN 1979-09-28 21:00:00 TS 27.9063 129.853 main 354 343 PPPP_____PP___ WP191979 27.9350 129.835 75 1 27.8200 129.800 5 70 952 9 75 75 9 300 300 27.9775 129.900 4 68 953 27.8275 129.900 T 70 950 27.9350 129.835 TC 75 27.9431 129.850 4 75 3 10
1979262N15149 1979 91 WP MM OWEN 1979-09-29 00:00:00 TS 28.0500 129.883 70 950 tokyo main 332 321 OOOO_____OO___ jtwc_wp WP191979 28.1000 129.900 75 1 28.0000 129.800 5 70 950 9 75 75 9 300 300 0 28.0000 129.900 4 68 953 28.0000 129.900 T 70 950 28.1000 129.900 TC 75 28.1000 129.900 4 75 4 10
1979262N15149 1979 91 WP MM OWEN 1979-09-29 03:00:00 TS 28.2526 129.915 main 311 287 PPPP_____PP___ WP191979 28.2775 129.993 75 1 28.2350 129.778 5 70 950 9 75 75 9 300 300 28.2050 129.885 4 68 953 28.2350 129.893 T 70 950 28.2775 129.993 TC 75 28.2854 129.947 4 75 5 10
1979262N15149 1979 91 WP MM OWEN 1979-09-29 06:00:00 TS 28.5016 129.970 70 950 tokyo main 287 265 OOOO_____OP___ jtwc_wp WP191979 28.5000 130.100 75 1 28.5000 129.800 5 70 950 9 75 75 9 300 300 0 28.5000 129.900 4 68 954 28.5000 129.900 T 70 950 28.5000 130.100 TC 75 28.5096 130.019 4 75 5 14
1979262N15149 1979 91 WP MM OWEN 1979-09-29 09:00:00 TS 28.7586 130.052 main 252 228 PPPP_____PP___ WP191979 28.7775 130.193 75 1 28.7275 129.920 5 70 950 9 75 75 9 300 300 28.7624 129.963 4 68 954 28.7274 129.913 T 70 952 28.7775 130.193 TC 75 28.7790 130.132 4 75 6 18
1979262N15149 1979 91 WP MM OWEN 1979-09-29 12:00:00 TS 29.0667 130.183 70 950 tokyo main 217 182 OOOO_____OO___ jtwc_wp WP191979 29.1000 130.300 75 1 29.0000 130.100 5 70 950 9 75 75 9 300 300 0 29.1000 130.100 4 68 954 29.0000 130.000 T 70 955 29.1000 130.300 TC 75 29.1000 130.300 4 75 7 20
1979262N15149 1979 91 WP MM OWEN 1979-09-29 15:00:00 TS 29.4249 130.333 main 182 134 PPPP_____PP___ WP191979 29.4198 130.398 75 1 29.3549 130.270 5 70 950 9 75 75 9 300 300 29.5923 130.290 4 68 954 29.3549 130.190 T 70 955 29.4198 130.398 TC 75 29.4078 130.451 4 73 9 24
1979262N15149 1979 91 WP MM OWEN 1979-09-29 18:00:00 TS 29.8457 130.578 70 950 tokyo main 134 80 OOOO_____OP___ jtwc_wp WP191979 29.8000 130.600 75 1 29.8000 130.500 5 70 950 9 75 75 9 300 300 0 30.1000 130.600 4 68 955 29.8000 130.500 T 70 955 29.8000 130.600 TC 75 29.7740 130.670 4 72 10 31
1979262N15149 1979 91 WP MM OWEN 1979-09-29 21:00:00 TS 30.2844 130.931 main 80 62 PPPP_____PP___ WP191979 30.2320 130.954 72 1 30.3042 130.754 5 67 952 9 67 67 9 250 250 30.4124 131.042 4 68 955 30.2971 130.876 T 67 955 30.2320 130.954 TC 72 30.2284 131.004 4 71 12 37
1979262N15149 1979 91 WP MM OWEN 1979-09-30 00:00:00 TS 30.8333 131.450 65 955 tokyo main 67 43 OOOO_____OO___ jtwc_wp WP191979 30.8000 131.500 70 1 30.9000 131.200 5 65 955 9 60 60 9 200 200 0 30.8000 131.600 4 68 955 30.9000 131.400 T 65 955 30.8000 131.500 TC 70 30.8000 131.500 4 70 16 40
1979262N15149 1979 91 WP MM OWEN 1979-09-30 03:00:00 TS 31.5266 132.126 main 65 45 PPPP_____PP___ WP191979 31.5473 132.218 67 1 31.5554 131.960 5 65 955 9 60 60 9 200 150 31.4893 132.183 4 68 955 31.6119 132.061 T 65 955 31.5473 132.218 TC 67 31.4088 132.115 4 66 20 41
1979262N15149 1979 91 WP MM OWEN 1979-09-30 06:00:00 TS 32.3238 132.969 65 955 tokyo main 44 28 OOOO_____OP___ jtwc_wp WP191979 32.4000 133.100 65 1 32.3000 132.900 5 65 955 9 60 60 3 200 100 0 32.3000 132.900 4 68 955 32.4000 132.900 T 65 955 32.4000 133.100 TC 65 32.1428 132.911 4 62 22 43
1979262N15149 1979 91 WP MM OWEN 1979-09-30 09:00:00 TS 33.0957 133.867 main 29 0 PPPP_____PP___ WP191979 33.2104 134.000 60 0 33.0496 133.745 5 65 957 9 60 60 3 200 100 32.9577 133.715 4 63 960 33.1159 133.844 T 65 955 33.2104 134.000 TC 60 33.0305 133.900 4 58 24 45
1979262N15149 1979 91 WP MM OWEN 1979-09-30 12:00:00 TS 34.0167 134.983 65 960 tokyo main 14 0 OOOO_____OO___ jtwc_wp WP191979 34.1000 135.100 55 0 34.0000 134.800 5 65 960 9 60 60 3 200 100 0 33.8000 134.800 3 58 965 34.0000 135.000 T 65 955 34.1000 135.100 TC 55 34.1000 135.100 2 55 29 46
1979262N15149 1979 91 WP MM OWEN 1979-09-30 15:00:00 TS 35.1154 136.384 main 0 0 PPPP_____PP___ WP191979 35.0063 136.476 50 0 35.1920 136.250 5 57 972 9 3 175 90 34.9994 136.248 3 53 970 35.1236 136.326 T 57 967 35.0063 136.476 TC 50 35.3648 136.525 2 50 35 45
1979262N15149 1979 91 WP MM OWEN 1979-09-30 18:00:00 TS 36.5068 138.054 50 984 tokyo main 0 0 OOOO_____OP___ jtwc_wp WP191979 36.2000 138.100 45 0 36.7000 138.000 4 50 984 0 3 150 80 0 36.5000 138.000 3 48 975 36.6000 138.000 STS 50 980 36.2000 138.100 TC 45 36.7784 138.157 2 45 43 43
1979262N15149 1979 91 WP MM OWEN 1979-09-30 21:00:00 TS 38.2608 139.980 main 0 0 PPPP_____PP___ WP191979 37.8666 139.918 40 0 38.5862 139.962 4 45 981 0 3 150 80 38.2225 139.995 3 48 975 38.4574 140.126 STS 45 980 37.8666 139.918 TC 40 38.2780 139.963 2 40 48 40
1979262N15149 1979 91 WP MM OWEN 1979-10-01 00:00:00 TS 40.1583 142.025 40 978 tokyo main 16 16 OOOO_____OO___ jtwc_wp WP191979 39.8000 141.900 35 0 40.5000 142.000 3 40 978 0 3 150 80 0 40.0000 142.000 3 48 975 40.5000 142.600 TS 40 980 39.8000 141.900 TC 35 39.8000 141.900 5 35 46 38
1979262N15149 1979 91 WP MM OWEN 1979-10-01 03:00:00 TS 41.8868 143.745 main 34 0 _PP___________ WP191979 -1 42.1105 143.851 3 976 0 3 41.6632 143.638 3 48 975 TS TC 5 40 39
1979262N15149 1979 91 WP MM OWEN 1979-10-01 06:00:00 ET 43.2500 145.400 975 tokyo main 0 0 _OO___________ -1 43.4000 145.600 6 975 0 0 0 43.1000 145.200 9 48 975 5 35 47
1979262N15149 1979 91 WP MM OWEN 1979-10-01 09:00:00 ET 44.2625 147.187 main 27 27 _PP___________ -1 44.3400 147.353 6 975 0 0 44.1850 147.020 9 48 975 5 31 55
1979262N15149 1979 91 WP MM OWEN 1979-10-01 12:00:00 ET 45.0000 148.900 976 tokyo main 34 22 _OO___________ -1 45.0000 149.000 6 976 0 0 0 45.0000 148.800 9 48 975 26 59
1979262N15149 1979 91 WP MM OWEN 1979-10-01 15:00:00 ET 45.6274 150.357 main 38 32 _PP___________ -1 45.5385 150.464 6 976 0 0 45.7163 150.250 9 48 975 24 61
1979262N15149 1979 91 WP MM OWEN 1979-10-01 18:00:00 ET 46.1500 151.900 976 tokyo main 115 115 _OO___________ -1 46.0000 152.000 6 976 0 0 0 46.3000 151.800 9 48 975 27 66
1979262N15149 1979 91 WP MM OWEN 1979-10-01 21:00:00 ET 46.7055 153.928 main 275 275 _PP___________ -1 46.5750 153.918 6 976 0 0 46.8360 153.937 9 48 975 30 72
1979262N15149 1979 91 WP MM OWEN 1979-10-02 00:00:00 ET 47.1000 156.100 976 tokyo main 325 322 _OO___________ -1 47.0000 156.000 6 976 0 0 0 47.2000 156.200 9 48 975 29 79
1979262N15149 1979 91 WP MM OWEN 1979-10-02 03:00:00 ET 47.2311 158.070 main 368 368 _PP___________ -1 47.0713 158.008 6 976 0 0 47.3909 158.132 9 48 975 26 88
1979262N15149 1979 91 WP MM OWEN 1979-10-02 06:00:00 ET 47.2000 160.000 976 tokyo main 447 447 _OO___________ -1 47.0000 160.000 6 976 0 0 0 47.4000 160.000 9 48 975 26 93
1979262N15149 1979 91 WP MM OWEN 1979-10-02 09:00:00 ET 47.1011 161.940 main 557 557 _PP___________ -1 46.9965 162.000 6 976 0 0 47.2056 161.880 9 48 975 27 94
1979262N15149 1979 91 WP MM OWEN 1979-10-02 12:00:00 ET 47.0000 164.000 976 tokyo main 673 673 _OO___________ -1 47.0000 164.000 6 976 0 0 0 47.0000 164.000 9 48 975 29 92
1979262N15149 1979 91 WP MM OWEN 1979-10-02 15:00:00 ET 46.9928 166.279 main 791 791 _PP___________ -1 46.9873 165.851 6 976 0 0 46.9984 166.706 9 48 975 32 90
1979262N15149 1979 91 WP MM OWEN 1979-10-02 18:00:00 ET 47.0000 168.643 976 tokyo main 905 905 _OO___________ -1 47.0000 168.000 6 976 0 0 0 47.0000 169.500 9 48 975 34 90
1979262N15149 1979 91 WP MM OWEN 1979-10-02 21:00:00 ET 46.9722 171.298 main 1042 1042 _PP___________ -1 47.0131 171.000 6 974 0 0 46.8904 171.893 9 48 975 36 91
1979262N15149 1979 91 WP MM OWEN 1979-10-03 00:00:00 ET 46.9250 174.000 972 tokyo main 1197 1197 _OO___________ -1 47.0000 174.000 6 972 0 0 0 46.7000 174.000 9 48 975 34 90
1979262N15149 1979 91 WP MM OWEN 1979-10-03 03:00:00 ET 46.9932 176.248 main 1243 1142 _P____________ -1 46.9932 176.248 6 968 0 0 9 27 88
1979262N15149 1979 91 WP MM OWEN 1979-10-03 06:00:00 ET 47.0000 178.000 964 tokyo main 1136 _O____________ -1 47.0000 178.000 6 964 0 0 0 24 90

Digital Typhoon Data and Search

About IBTrACS Database

This database is a web-friendly format of International Best Track Archive for Climate Stewardship (IBTrACS), a global best track data archive curated by NOAA dating back to 1842.

Updated: 2021-10-25